Time;durP1;ratioP1;P1;durP2;ratioP2;P2;SDS_P1;SDS_P2;PMS_P1;PMS_P2;Temp;Humidity;BMP_temperature;BMP_pressure;BME280_temperature;BME280_humidity;BME280_pressure;Samples;Min_cycle;Max_cycle;Signal;HPM_P1;HPM_P2
2020/12/25 00:01:59;;;;;;;1.50;1.00;;;-1.40;99.90;;;;;;4999533;28;20205;-79
2020/12/25 00:04:24;;;;;;;1.92;1.10;;;-1.40;99.90;;;;;;4999109;28;20227;-79
2020/12/25 00:06:50;;;;;;;1.88;1.00;;;-1.40;99.90;;;;;;4995178;28;20198;-79
2020/12/25 00:09:16;;;;;;;3.80;1.23;;;-1.30;99.90;;;;;;4998690;28;20198;-79
2020/12/25 00:11:43;;;;;;;1.30;1.20;;;-1.40;99.90;;;;;;4999742;28;20365;-79
2020/12/25 00:14:09;;;;;;;1.00;0.93;;;-1.40;99.90;;;;;;4994759;28;20191;-79
2020/12/25 00:16:35;;;;;;;1.77;0.90;;;-1.40;99.90;;;;;;4999816;28;20616;-78
2020/12/25 00:19:00;;;;;;;1.20;1.10;;;-1.40;99.90;;;;;;4995385;28;20669;-77
2020/12/25 00:21:27;;;;;;;1.10;1.00;;;-1.30;99.90;;;;;;4999686;28;20205;-78
2020/12/25 00:23:52;;;;;;;0.90;0.90;;;-1.30;99.90;;;;;;4997779;28;20226;-78
2020/12/25 00:26:25;;;;;;;1.42;1.05;;;-1.20;99.90;;;;;;4992626;28;20627;-78
2020/12/25 00:28:51;;;;;;;1.80;1.10;;;-1.20;99.90;;;;;;4998812;28;20211;-78
2020/12/25 00:31:36;;;;;;;0.90;0.90;;;-1.20;99.90;;;;;;4994641;28;20194;-79
2020/12/25 00:34:04;;;;;;;1.88;1.17;;;-1.30;99.90;;;;;;4994538;28;20195;-78
2020/12/25 00:36:32;;;;;;;1.27;1.10;;;-1.20;99.90;;;;;;4994080;28;20243;-78
2020/12/25 00:39:00;;;;;;;2.78;1.20;;;-1.10;99.90;;;;;;4998200;28;20878;-78
2020/12/25 00:41:26;;;;;;;1.70;1.10;;;-1.20;99.90;;;;;;4995504;28;20308;-78
2020/12/25 00:43:52;;;;;;;1.00;1.00;;;-1.10;99.90;;;;;;4995133;28;20227;-78
2020/12/25 00:46:19;;;;;;;1.25;0.85;;;-1.20;99.90;;;;;;4996627;28;20194;-78
2020/12/25 00:48:45;;;;;;;1.00;1.00;;;-1.20;99.90;;;;;;4995709;28;20218;-79
2020/12/25 00:51:21;;;;;;;2.40;0.93;;;-1.30;99.90;;;;;;5000615;28;20198;-78
2020/12/25 00:53:47;;;;;;;1.10;1.00;;;-1.40;99.90;;;;;;4995067;28;20297;-78
2020/12/25 00:56:14;;;;;;;0.90;0.90;;;-1.40;99.90;;;;;;4999873;28;20242;-78
2020/12/25 00:58:41;;;;;;;0.80;0.80;;;-1.40;99.90;;;;;;4998852;28;20273;-79
2020/12/25 01:01:08;;;;;;;0.90;0.90;;;-1.40;99.90;;;;;;4997728;28;20221;-76
2020/12/25 01:03:35;;;;;;;2.75;1.00;;;-1.40;99.90;;;;;;4994016;28;20873;-78
2020/12/25 01:06:02;;;;;;;1.17;1.00;;;-1.40;99.90;;;;;;4999316;28;20963;-78
2020/12/25 01:08:28;;;;;;;1.90;0.95;;;-1.40;99.90;;;;;;4997795;28;20207;-78
2020/12/25 01:10:54;;;;;;;1.70;0.90;;;-1.30;99.90;;;;;;4995818;28;20195;-78
2020/12/25 01:13:19;;;;;;;1.10;1.00;;;-1.30;99.90;;;;;;4997938;28;20199;-79
2020/12/25 01:15:45;;;;;;;0.80;0.80;;;-1.30;99.90;;;;;;4995741;28;20302;-78
2020/12/25 01:18:11;;;;;;;0.82;0.80;;;-1.30;99.90;;;;;;4992039;28;20294;-78
2020/12/25 01:20:37;;;;;;;2.35;1.00;;;-1.40;99.90;;;;;;4992826;28;20229;-79
2020/12/25 01:23:03;;;;;;;0.90;0.90;;;-1.40;99.90;;;;;;4993770;28;20203;-78
2020/12/25 01:25:29;;;;;;;0.90;0.90;;;-1.30;99.90;;;;;;4993582;28;20669;-78
2020/12/25 01:27:55;;;;;;;1.10;1.00;;;-1.30;99.90;;;;;;4991443;28;20203;-78
2020/12/25 01:30:21;;;;;;;1.30;0.93;;;-1.30;99.90;;;;;;4992675;28;20227;-78
2020/12/25 01:32:46;;;;;;;1.10;1.00;;;-1.30;99.90;;;;;;4992529;28;20230;-78
2020/12/25 01:35:12;;;;;;;1.77;0.85;;;-1.20;99.90;;;;;;4994509;28;20741;-78
2020/12/25 01:37:37;;;;;;;3.67;1.35;;;-1.30;99.90;;;;;;4991011;28;20198;-78
2020/12/25 01:40:04;;;;;;;1.10;1.00;;;-1.30;99.90;;;;;;4994075;28;20299;-78
2020/12/25 01:42:30;;;;;;;1.08;0.80;;;-1.30;99.90;;;;;;4991189;28;20285;-77
2020/12/25 01:44:56;;;;;;;1.00;0.90;;;-1.30;99.90;;;;;;4993270;28;20302;-79
2020/12/25 01:47:22;;;;;;;0.90;0.90;;;-1.40;99.90;;;;;;4989772;28;20203;-79
2020/12/25 01:49:48;;;;;;;0.95;0.80;;;-1.60;99.90;;;;;;4996498;28;20201;-79
2020/12/25 01:52:14;;;;;;;0.80;0.80;;;-1.70;99.90;;;;;;4991690;28;20198;-78
2020/12/25 01:54:43;;;;;;;1.05;0.95;;;-1.70;99.90;;;;;;4994105;28;20205;-79
2020/12/25 01:57:11;;;;;;;0.90;0.90;;;-1.80;99.90;;;;;;4996724;28;20567;-79
2020/12/25 01:59:37;;;;;;;1.83;1.00;;;-1.90;99.90;;;;;;4993681;28;20194;-79
2020/12/25 02:02:04;;;;;;;0.90;0.90;;;-1.90;99.90;;;;;;4993322;28;20548;-78
2020/12/25 02:04:30;;;;;;;1.98;0.90;;;-2.00;99.90;;;;;;4991603;28;20225;-78
2020/12/25 02:06:55;;;;;;;2.88;1.00;;;-2.00;99.90;;;;;;4992711;28;20203;-79
2020/12/25 02:09:21;;;;;;;1.27;0.90;;;-1.90;99.90;;;;;;4992541;28;20311;-79
2020/12/25 02:11:48;;;;;;;1.02;1.00;;;-2.00;99.90;;;;;;4995509;28;20209;-79
2020/12/25 02:14:14;;;;;;;1.00;1.00;;;-2.00;99.90;;;;;;4992992;28;20195;-79
2020/12/25 02:16:41;;;;;;;1.15;1.02;;;-1.90;99.90;;;;;;4995545;28;20203;-78
2020/12/25 02:19:08;;;;;;;0.80;0.80;;;-2.00;99.90;;;;;;4992816;28;20719;-79
2020/12/25 02:21:34;;;;;;;0.90;0.90;;;-2.00;99.90;;;;;;4999060;28;20688;-77
2020/12/25 02:24:02;;;;;;;1.00;0.90;;;-2.00;99.90;;;;;;4990230;28;20206;-78
2020/12/25 02:26:27;;;;;;;1.58;1.00;;;-2.10;99.90;;;;;;4993450;28;20203;-79
2020/12/25 02:28:53;;;;;;;0.90;0.90;;;-2.10;99.90;;;;;;4995674;28;20640;-79
2020/12/25 02:31:19;;;;;;;6.38;1.15;;;-2.10;99.90;;;;;;4994205;28;20241;-78
2020/12/25 02:33:44;;;;;;;1.33;0.82;;;-2.10;99.90;;;;;;4994885;28;20222;-78
2020/12/25 02:36:10;;;;;;;1.45;1.00;;;-2.10;99.90;;;;;;4987645;28;20203;-78
2020/12/25 02:38:36;;;;;;;1.77;0.93;;;-2.00;99.90;;;;;;4992224;28;20203;-78
2020/12/25 02:41:01;;;;;;;0.90;0.90;;;-1.80;99.90;;;;;;4995414;28;20234;-78
2020/12/25 02:43:27;;;;;;;1.00;0.90;;;-1.80;99.90;;;;;;4994562;28;20212;-78
2020/12/25 02:45:53;;;;;;;0.90;0.90;;;-1.80;99.90;;;;;;4989519;28;20199;-79
2020/12/25 02:48:18;;;;;;;0.90;0.90;;;-1.80;99.90;;;;;;4995592;28;20235;-78
2020/12/25 02:50:44;;;;;;;1.10;1.00;;;-1.70;99.90;;;;;;4991434;28;21043;-79
2020/12/25 02:53:09;;;;;;;1.08;0.90;;;-1.70;99.90;;;;;;4993251;28;20649;-79
2020/12/25 02:55:35;;;;;;;0.82;0.82;;;-1.60;99.90;;;;;;5001272;28;20685;-79
2020/12/25 02:58:01;;;;;;;0.85;0.85;;;-1.50;99.90;;;;;;4999009;28;20263;-79
2020/12/25 03:00:27;;;;;;;1.90;0.88;;;-1.50;99.90;;;;;;4997687;28;20231;-78
2020/12/25 03:02:52;;;;;;;0.90;0.90;;;-1.50;99.90;;;;;;4998528;28;20710;-78
2020/12/25 03:05:18;;;;;;;0.98;0.90;;;-1.50;99.90;;;;;;4999392;28;20233;-78
2020/12/25 03:07:44;;;;;;;1.02;0.80;;;-1.40;99.90;;;;;;5002394;28;20215;-78
2020/12/25 03:10:09;;;;;;;0.70;0.70;;;-1.40;99.90;;;;;;4998464;28;20666;-78
2020/12/25 03:12:35;;;;;;;1.27;0.70;;;-1.30;99.90;;;;;;4996667;28;20196;-78
2020/12/25 03:15:01;;;;;;;0.80;0.80;;;-1.30;99.90;;;;;;4999574;28;20191;-78
2020/12/25 03:17:26;;;;;;;0.80;0.80;;;-1.30;99.90;;;;;;4996935;28;20203;-78
2020/12/25 03:19:52;;;;;;;0.90;0.90;;;-1.30;99.90;;;;;;4999088;28;20210;-79
2020/12/25 03:22:18;;;;;;;2.28;0.98;;;-1.20;99.90;;;;;;4998659;28;20210;-78
2020/12/25 03:24:43;;;;;;;1.38;0.88;;;-1.10;99.90;;;;;;4998895;28;20232;-78
2020/12/25 03:27:09;;;;;;;1.65;0.93;;;-1.10;99.90;;;;;;4998328;28;20199;-78
2020/12/25 03:29:34;;;;;;;1.00;1.00;;;-1.00;99.90;;;;;;4998391;28;20211;-78
2020/12/25 03:32:00;;;;;;;0.70;0.70;;;-1.00;99.90;;;;;;4995019;28;20564;-77
2020/12/25 03:34:28;;;;;;;0.70;0.70;;;-1.00;99.90;;;;;;4998232;28;20222;-78
2020/12/25 03:36:54;;;;;;;1.45;0.90;;;-0.90;99.90;;;;;;4998193;28;20195;-78
2020/12/25 03:39:20;;;;;;;0.70;0.70;;;-0.80;99.90;;;;;;4996234;28;20208;-78
2020/12/25 03:41:46;;;;;;;0.80;0.80;;;-0.70;99.90;;;;;;4999270;28;20207;-77
2020/12/25 03:44:12;;;;;;;2.45;0.90;;;-0.60;99.90;;;;;;4996062;28;20194;-77
2020/12/25 03:46:38;;;;;;;1.08;0.98;;;-0.60;99.90;;;;;;5001930;28;20226;-78
2020/12/25 03:49:07;;;;;;;0.80;0.80;;;-0.60;99.90;;;;;;4994025;28;20432;-78
2020/12/25 03:51:33;;;;;;;1.17;0.90;;;-0.50;99.90;;;;;;5001642;28;20199;-77
2020/12/25 03:53:59;;;;;;;0.80;0.80;;;-0.60;99.90;;;;;;4996610;28;20254;-78
2020/12/25 03:56:25;;;;;;;0.93;0.70;;;-0.70;99.90;;;;;;5001785;28;20211;-78
2020/12/25 03:58:51;;;;;;;0.80;0.80;;;-0.70;99.90;;;;;;4995086;28;20198;-78
2020/12/25 04:01:17;;;;;;;1.23;0.88;;;-0.70;99.90;;;;;;4999291;28;20736;-78
2020/12/25 04:03:43;;;;;;;0.77;0.77;;;-0.70;99.90;;;;;;4998159;28;20859;-77
2020/12/25 04:06:08;;;;;;;0.75;0.75;;;-0.60;99.90;;;;;;4997370;28;20282;-78
2020/12/25 04:08:34;;;;;;;1.00;0.90;;;-0.70;99.90;;;;;;4992130;28;20263;-78
2020/12/25 04:11:00;;;;;;;1.75;0.93;;;-0.60;99.90;;;;;;4999677;28;20206;-78
2020/12/25 04:13:26;;;;;;;0.88;0.88;;;-0.60;99.90;;;;;;4999648;28;20199;-78
2020/12/25 04:15:51;;;;;;;0.70;0.70;;;-0.60;99.90;;;;;;4998799;28;20199;-78
2020/12/25 04:18:17;;;;;;;1.58;0.90;;;-0.50;99.90;;;;;;4994958;28;20294;-78
2020/12/25 04:20:43;;;;;;;1.08;0.98;;;-0.50;99.90;;;;;;4998640;28;20206;-78
2020/12/25 04:23:08;;;;;;;0.80;0.80;;;-0.40;99.90;;;;;;4999187;28;20200;-78
2020/12/25 04:25:34;;;;;;;1.67;0.80;;;-0.40;99.90;;;;;;4996984;28;20659;-77
2020/12/25 04:28:00;;;;;;;0.80;0.80;;;-0.40;99.90;;;;;;4994791;28;20212;-78
2020/12/25 04:30:25;;;;;;;1.85;0.80;;;-0.40;99.90;;;;;;4993904;28;20973;-77
2020/12/25 04:32:51;;;;;;;0.88;0.82;;;-0.30;99.90;;;;;;4996285;28;20269;-78
2020/12/25 04:35:17;;;;;;;3.25;0.90;;;-0.30;99.90;;;;;;4995907;28;20196;-78
2020/12/25 04:37:43;;;;;;;0.70;0.70;;;-0.20;99.90;;;;;;4993561;28;20258;-78
2020/12/25 04:40:08;;;;;;;0.70;0.70;;;-0.20;99.90;;;;;;4996170;28;21172;-78
2020/12/25 04:42:41;;;;;;;0.70;0.70;;;-0.20;99.90;;;;;;4992239;28;20204;-78
2020/12/25 04:45:07;;;;;;;0.70;0.70;;;-0.20;99.90;;;;;;4996816;28;20720;-78
2020/12/25 04:47:37;;;;;;;0.70;0.70;;;-0.20;99.90;;;;;;4993833;28;20316;-78
2020/12/25 04:50:03;;;;;;;0.93;0.93;;;-0.20;99.90;;;;;;4996363;28;20206;-78
2020/12/25 04:52:29;;;;;;;0.80;0.80;;;-0.20;99.90;;;;;;4993228;28;20563;-78
2020/12/25 04:54:55;;;;;;;1.00;0.90;;;-0.20;99.90;;;;;;4998181;28;20203;-78
2020/12/25 04:57:21;;;;;;;0.80;0.80;;;-0.20;99.90;;;;;;4994602;28;20219;-78
2020/12/25 04:59:47;;;;;;;0.80;0.80;;;-0.30;99.90;;;;;;4996481;28;21016;-78
2020/12/25 05:02:14;;;;;;;1.08;0.98;;;-0.20;99.90;;;;;;4995309;28;20701;-78
2020/12/25 05:04:40;;;;;;;0.90;0.90;;;-0.20;99.90;;;;;;4995230;28;20227;-78
2020/12/25 05:07:07;;;;;;;0.80;0.80;;;-0.20;99.90;;;;;;4994964;28;20199;-78
2020/12/25 05:09:32;;;;;;;0.80;0.80;;;-0.30;99.90;;;;;;4994329;28;20195;-78
2020/12/25 05:11:58;;;;;;;0.80;0.80;;;-0.30;99.90;;;;;;4993835;28;20290;-78
2020/12/25 05:14:29;;;;;;;0.88;0.88;;;-0.30;99.90;;;;;;4991048;28;20199;-78
2020/12/25 05:16:57;;;;;;;1.80;1.00;;;-0.30;99.90;;;;;;4993715;28;20218;-78
2020/12/25 05:19:33;;;;;;;0.85;0.85;;;-0.30;99.90;;;;;;4991200;28;20207;-78
2020/12/25 05:22:00;;;;;;;0.70;0.70;;;-0.30;99.90;;;;;;4997558;28;20257;-79
2020/12/25 05:24:34;;;;;;;0.88;0.88;;;-0.20;99.90;;;;;;4995045;28;20202;-78
2020/12/25 05:26:59;;;;;;;0.80;0.80;;;-0.20;99.90;;;;;;4993502;28;20199;-78
2020/12/25 05:29:27;;;;;;;0.70;0.70;;;-0.10;99.90;;;;;;4993766;28;20217;-78
2020/12/25 05:31:54;;;;;;;0.80;0.80;;;-0.10;99.90;;;;;;4993916;28;20199;-78
2020/12/25 05:34:21;;;;;;;0.80;0.80;;;-0.10;99.90;;;;;;4995870;28;20281;-78
2020/12/25 05:36:54;;;;;;;1.00;0.90;;;-0.10;99.90;;;;;;4995997;28;20195;-78
2020/12/25 05:39:31;;;;;;;0.88;0.88;;;-0.10;99.90;;;;;;4993442;28;20211;-79
2020/12/25 05:42:02;;;;;;;1.02;0.82;;;-0.10;99.90;;;;;;4994391;28;20546;-77
2020/12/25 05:44:34;;;;;;;0.80;0.80;;;-0.10;99.90;;;;;;4992945;28;20198;-78
2020/12/25 05:47:01;;;;;;;3.25;0.88;;;0.00;99.90;;;;;;4992373;28;20206;-78
2020/12/25 05:49:28;;;;;;;0.80;0.80;;;-0.10;99.90;;;;;;4989048;28;20207;-78
2020/12/25 05:51:54;;;;;;;0.88;0.88;;;-0.10;99.90;;;;;;4990720;28;20246;-78
2020/12/25 05:54:22;;;;;;;0.90;0.90;;;-0.10;99.90;;;;;;4991754;28;20202;-78
2020/12/25 05:56:57;;;;;;;1.15;0.88;;;-0.10;99.90;;;;;;4993886;28;20191;-78
2020/12/25 05:59:31;;;;;;;0.80;0.80;;;-0.20;99.90;;;;;;4993417;28;20210;-77
2020/12/25 06:02:01;;;;;;;0.90;0.90;;;-0.20;99.90;;;;;;4991426;28;20740;-78
2020/12/25 06:04:29;;;;;;;1.10;0.90;;;-0.20;99.90;;;;;;4992466;28;20870;-78
2020/12/25 06:06:56;;;;;;;0.70;0.70;;;-0.10;99.90;;;;;;4991247;28;20195;-77
2020/12/25 06:09:29;;;;;;;0.77;0.77;;;-0.10;99.90;;;;;;4988780;28;20242;-78
2020/12/25 06:11:56;;;;;;;0.80;0.80;;;-0.20;99.90;;;;;;4995013;28;20191;-77
2020/12/25 06:14:21;;;;;;;2.10;0.90;;;-0.20;99.90;;;;;;4992889;28;20207;-77
2020/12/25 06:16:56;;;;;;;0.80;0.80;;;-0.20;99.90;;;;;;4995432;28;20199;-78
2020/12/25 06:19:45;;;;;;;0.70;0.70;;;-0.10;99.90;;;;;;4994092;28;20210;-78
2020/12/25 06:22:25;;;;;;;0.90;0.90;;;0.00;99.90;;;;;;4997055;28;20202;-77
2020/12/25 06:24:52;;;;;;;0.80;0.80;;;0.00;99.90;;;;;;4994115;28;20195;-78
2020/12/25 06:27:18;;;;;;;1.55;0.82;;;0.00;99.90;;;;;;4995245;28;20203;-78
2020/12/25 06:29:44;;;;;;;0.90;0.90;;;0.00;99.90;;;;;;4996435;28;20203;-77
2020/12/25 06:32:12;;;;;;;0.95;0.73;;;0.00;99.90;;;;;;4999877;28;20301;-77
2020/12/25 06:34:50;;;;;;;0.70;0.70;;;0.00;99.90;;;;;;5002815;28;20198;-78
2020/12/25 06:37:17;;;;;;;0.80;0.80;;;0.10;99.90;;;;;;5000098;28;20210;-78
2020/12/25 06:39:53;;;;;;;1.00;0.93;;;0.10;99.90;;;;;;5001991;28;20826;-79
2020/12/25 06:42:33;;;;;;;0.80;0.80;;;0.10;99.90;;;;;;4999395;28;20680;-80
2020/12/25 06:45:17;;;;;;;1.00;0.90;;;0.20;99.90;;;;;;5000256;28;20194;-79
2020/12/25 06:47:42;;;;;;;1.45;0.60;;;0.20;99.90;;;;;;4998995;28;20682;-79
2020/12/25 06:50:14;;;;;;;0.80;0.80;;;0.10;99.90;;;;;;4999690;28;20261;-79
2020/12/25 06:53:00;;;;;;;1.60;0.95;;;0.10;99.90;;;;;;4997176;28;20235;-79
2020/12/25 06:55:40;;;;;;;0.63;0.63;;;0.10;99.90;;;;;;4992885;28;20704;-79
2020/12/25 06:58:06;;;;;;;0.80;0.80;;;0.10;99.90;;;;;;4997197;28;20272;-79
2020/12/25 07:00:32;;;;;;;0.80;0.80;;;0.10;99.90;;;;;;5001410;28;20203;-80
2020/12/25 07:03:13;;;;;;;2.10;0.88;;;0.10;99.90;;;;;;4998329;28;20203;-79
2020/12/25 07:05:49;;;;;;;0.80;0.80;;;0.00;99.90;;;;;;4996554;28;20203;-79
2020/12/25 07:08:29;;;;;;;0.75;0.75;;;-0.10;99.90;;;;;;4996932;28;20237;-76
2020/12/25 07:10:59;;;;;;;0.80;0.80;;;-0.10;99.90;;;;;;4993992;28;20293;-78
2020/12/25 07:13:25;;;;;;;0.77;0.77;;;-0.10;99.90;;;;;;4993327;28;20202;-80
2020/12/25 07:15:52;;;;;;;0.70;0.70;;;-0.10;99.90;;;;;;4997883;28;20199;-80
2020/12/25 07:18:18;;;;;;;0.70;0.70;;;-0.20;99.90;;;;;;4996498;28;20204;-80
2020/12/25 07:20:44;;;;;;;0.90;0.90;;;-0.30;99.90;;;;;;4999840;28;20562;-80
2020/12/25 07:23:10;;;;;;;0.80;0.80;;;-0.30;99.90;;;;;;4998026;28;20206;-80
2020/12/25 07:25:42;;;;;;;0.80;0.80;;;-0.30;99.90;;;;;;4997342;28;20234;-78
2020/12/25 07:28:08;;;;;;;0.90;0.80;;;-0.30;99.90;;;;;;4997273;28;20218;-78
2020/12/25 07:30:34;;;;;;;0.80;0.80;;;-0.30;99.90;;;;;;4993811;28;20207;-78
2020/12/25 07:33:03;;;;;;;1.00;0.90;;;-0.30;99.90;;;;;;4997423;28;20199;-78
2020/12/25 07:35:28;;;;;;;1.25;0.85;;;-0.30;99.90;;;;;;4997840;28;20203;-78
2020/12/25 07:37:55;;;;;;;0.75;0.75;;;-0.40;99.90;;;;;;4996373;28;20202;-78
2020/12/25 07:40:20;;;;;;;2.70;0.98;;;-0.50;99.90;;;;;;4998512;28;20203;-78
2020/12/25 07:42:46;;;;;;;0.80;0.80;;;-0.40;99.90;;;;;;4997286;28;21034;-80
2020/12/25 07:45:12;;;;;;;0.80;0.80;;;-0.50;99.90;;;;;;4995088;28;20294;-78
2020/12/25 07:47:39;;;;;;;0.80;0.80;;;-0.40;99.90;;;;;;4995133;28;20215;-77
2020/12/25 07:50:05;;;;;;;1.15;0.80;;;-0.40;99.90;;;;;;5000187;28;20206;-78
2020/12/25 07:52:31;;;;;;;1.40;0.85;;;-0.40;99.90;;;;;;4999999;28;20190;-76
2020/12/25 07:54:57;;;;;;;1.33;0.93;;;-0.40;99.90;;;;;;4987757;28;20192;-77
2020/12/25 07:57:24;;;;;;;0.60;0.60;;;-0.40;99.90;;;;;;5001195;28;20203;-77
2020/12/25 07:59:50;;;;;;;0.82;0.73;;;-0.40;99.90;;;;;;5015208;28;20306;-77
2020/12/25 08:02:19;;;;;;;0.80;0.80;;;-0.40;99.90;;;;;;5002068;28;20226;-78
2020/12/25 08:04:45;;;;;;;0.75;0.70;;;-0.30;99.90;;;;;;5003529;28;20230;-78
2020/12/25 08:07:11;;;;;;;0.88;0.88;;;-0.30;99.90;;;;;;4999350;28;20202;-77
2020/12/25 08:09:38;;;;;;;0.80;0.80;;;-0.30;99.90;;;;;;5003559;28;20198;-78
2020/12/25 08:12:09;;;;;;;0.70;0.70;;;-0.30;99.90;;;;;;4998482;28;20213;-77
2020/12/25 08:14:38;;;;;;;0.80;0.80;;;-0.30;99.90;;;;;;5003415;28;20202;-77
2020/12/25 08:17:04;;;;;;;0.80;0.80;;;-0.10;99.90;;;;;;4994890;28;20207;-77
2020/12/25 08:19:36;;;;;;;0.60;0.60;;;-0.10;99.90;;;;;;4998654;28;20286;-78
2020/12/25 08:22:06;;;;;;;0.80;0.80;;;-0.10;99.90;;;;;;4997310;28;20194;-77
2020/12/25 08:24:32;;;;;;;0.90;0.90;;;-0.10;99.90;;;;;;4993981;28;20195;-76
2020/12/25 08:27:03;;;;;;;0.80;0.80;;;0.00;99.90;;;;;;4997840;28;20240;-78
2020/12/25 08:29:31;;;;;;;0.75;0.75;;;-0.10;99.90;;;;;;4994315;28;20210;-77
2020/12/25 08:32:08;;;;;;;1.20;0.77;;;0.00;99.90;;;;;;4992586;28;20677;-78
2020/12/25 08:34:34;;;;;;;1.27;0.80;;;0.00;99.90;;;;;;4988802;28;20206;-77
2020/12/25 08:37:02;;;;;;;0.90;0.90;;;0.00;99.90;;;;;;4991144;28;20211;-77
2020/12/25 08:39:29;;;;;;;0.93;0.80;;;0.00;99.90;;;;;;4994056;28;20197;-77
2020/12/25 08:42:00;;;;;;;0.93;0.80;;;0.10;99.90;;;;;;4996987;28;20200;-78
2020/12/25 08:44:27;;;;;;;0.70;0.70;;;0.10;99.90;;;;;;4998235;28;20210;-78
2020/12/25 08:47:09;;;;;;;0.70;0.70;;;0.10;99.90;;;;;;4992076;28;20344;-77
2020/12/25 08:49:37;;;;;;;4.47;0.93;;;0.10;99.90;;;;;;4991960;28;20549;-79
2020/12/25 08:52:03;;;;;;;0.75;0.75;;;0.20;99.90;;;;;;4988455;28;20262;-78
2020/12/25 08:54:30;;;;;;;1.63;0.90;;;0.20;99.90;;;;;;4990349;28;20203;-79
2020/12/25 08:56:56;;;;;;;0.77;0.77;;;0.10;99.90;;;;;;4992673;28;20739;-78
2020/12/25 08:59:22;;;;;;;4.25;1.00;;;0.10;99.90;;;;;;5004886;28;20203;-78
2020/12/25 09:01:49;;;;;;;0.80;0.80;;;0.10;99.90;;;;;;4991711;28;20555;-78
2020/12/25 09:04:16;;;;;;;1.13;0.98;;;0.10;99.90;;;;;;4990944;28;20701;-78
2020/12/25 09:06:43;;;;;;;4.15;0.80;;;0.20;99.90;;;;;;4989094;28;20202;-79
2020/12/25 09:09:09;;;;;;;0.93;0.82;;;0.20;99.90;;;;;;4992474;28;20233;-78
2020/12/25 09:11:35;;;;;;;1.15;0.90;;;0.20;99.90;;;;;;4994570;28;20201;-80
2020/12/25 09:14:01;;;;;;;0.80;0.80;;;0.30;99.90;;;;;;4991873;28;20312;-79
2020/12/25 09:16:27;;;;;;;1.00;0.90;;;0.30;99.90;;;;;;4995509;28;20195;-78
2020/12/25 09:18:52;;;;;;;1.23;0.90;;;0.30;99.90;;;;;;4990813;28;20549;-79
2020/12/25 09:21:18;;;;;;;0.80;0.80;;;0.30;99.90;;;;;;4988208;28;20199;-80
2020/12/25 09:23:44;;;;;;;3.42;0.90;;;0.30;99.90;;;;;;4982761;28;20331;-79
2020/12/25 09:26:12;;;;;;;3.50;0.90;;;0.30;99.90;;;;;;4983536;28;20286;-79
2020/12/25 09:28:38;;;;;;;0.77;0.77;;;0.30;99.90;;;;;;4987429;28;20305;-79
2020/12/25 09:31:08;;;;;;;1.25;0.70;;;0.30;99.90;;;;;;4991123;28;20532;-78
2020/12/25 09:33:35;;;;;;;2.72;0.85;;;0.30;99.90;;;;;;4984657;28;20203;-79
2020/12/25 09:36:03;;;;;;;1.00;0.90;;;0.20;99.90;;;;;;4990147;28;20199;-79
2020/12/25 09:38:29;;;;;;;0.80;0.80;;;0.20;99.90;;;;;;4992553;28;20202;-79
2020/12/25 09:40:55;;;;;;;0.82;0.82;;;0.20;99.90;;;;;;4988130;28;20214;-79
2020/12/25 09:43:20;;;;;;;1.17;1.00;;;0.10;99.90;;;;;;4991986;28;20265;-79
2020/12/25 09:45:46;;;;;;;1.05;0.90;;;0.20;99.90;;;;;;4995650;28;20719;-79
2020/12/25 09:48:13;;;;;;;2.08;1.33;;;0.20;99.90;;;;;;4997271;28;20799;-80
2020/12/25 09:50:39;;;;;;;1.67;1.00;;;0.20;99.90;;;;;;4995826;28;20556;-80
2020/12/25 09:53:05;;;;;;;1.00;0.90;;;0.10;99.90;;;;;;4997822;28;20282;-80
2020/12/25 09:55:36;;;;;;;2.30;1.58;;;0.10;99.90;;;;;;4997674;28;20241;-79
2020/12/25 09:58:02;;;;;;;1.23;1.05;;;0.10;99.90;;;;;;4995190;28;20265;-79
2020/12/25 10:00:28;;;;;;;2.45;1.60;;;0.10;99.90;;;;;;4990826;28;20202;-79
2020/12/25 10:02:54;;;;;;;3.40;1.40;;;0.20;99.90;;;;;;4989662;28;20666;-79
2020/12/25 10:05:19;;;;;;;2.20;1.20;;;0.20;99.90;;;;;;4989899;28;20211;-79
2020/12/25 10:07:46;;;;;;;1.90;1.20;;;0.20;99.90;;;;;;4992164;28;20214;-79
2020/12/25 10:10:15;;;;;;;2.03;1.17;;;0.20;99.90;;;;;;4988781;28;20192;-79
2020/12/25 10:12:40;;;;;;;2.33;1.00;;;0.20;99.90;;;;;;4986165;28;20192;-79
2020/12/25 10:15:06;;;;;;;1.55;0.90;;;0.10;99.90;;;;;;4992472;28;20237;-80
2020/12/25 10:17:33;;;;;;;1.27;1.00;;;0.10;99.90;;;;;;4991703;28;20217;-80
2020/12/25 10:19:58;;;;;;;1.13;0.73;;;0.10;99.90;;;;;;4988490;28;20277;-80
2020/12/25 10:22:24;;;;;;;1.58;0.90;;;0.00;99.90;;;;;;4990670;28;20588;-80
2020/12/25 10:24:50;;;;;;;6.43;1.08;;;0.00;99.90;;;;;;4987460;28;20658;-80
2020/12/25 10:27:15;;;;;;;2.25;1.00;;;-0.10;99.90;;;;;;4990502;28;20633;-79
2020/12/25 10:29:41;;;;;;;1.10;0.90;;;-0.10;99.90;;;;;;4990564;28;20285;-79
2020/12/25 10:32:07;;;;;;;1.00;0.90;;;-0.10;99.90;;;;;;4991157;28;20205;-80
2020/12/25 10:34:33;;;;;;;2.05;0.90;;;-0.10;99.90;;;;;;4984921;28;20290;-79
2020/12/25 10:37:01;;;;;;;1.02;0.90;;;-0.10;99.90;;;;;;4992336;28;20309;-81
2020/12/25 10:39:27;;;;;;;1.45;0.90;;;-0.10;99.90;;;;;;4982376;28;20264;-80
2020/12/25 10:41:53;;;;;;;2.90;0.90;;;-0.10;99.90;;;;;;4989087;28;20199;-79
2020/12/25 10:44:18;;;;;;;1.52;1.05;;;0.00;99.90;;;;;;4988195;28;20741;-79
2020/12/25 10:46:44;;;;;;;1.52;0.90;;;0.00;99.90;;;;;;4998487;28;20322;-79
2020/12/25 10:49:10;;;;;;;0.90;0.90;;;0.00;99.90;;;;;;4988834;28;20207;-80
2020/12/25 10:51:35;;;;;;;1.17;1.05;;;0.00;99.90;;;;;;4990596;28;20199;-79
2020/12/25 10:54:01;;;;;;;0.93;0.90;;;0.00;99.90;;;;;;4988426;28;20249;-80
2020/12/25 10:56:31;;;;;;;3.30;1.10;;;-0.10;99.90;;;;;;4987857;28;20322;-79
2020/12/25 10:58:57;;;;;;;1.40;0.85;;;0.00;99.90;;;;;;4988679;28;20209;-79
2020/12/25 11:01:24;;;;;;;1.30;1.10;;;0.00;99.90;;;;;;4987920;28;20206;-79
2020/12/25 11:03:51;;;;;;;2.67;0.90;;;0.00;99.90;;;;;;4990854;28;20222;-80
2020/12/25 11:06:18;;;;;;;1.10;1.00;;;0.10;99.90;;;;;;4992463;28;20213;-80
2020/12/25 11:08:49;;;;;;;1.35;1.10;;;0.10;99.90;;;;;;4990683;28;20502;-79
2020/12/25 11:11:25;;;;;;;1.25;0.90;;;0.10;99.90;;;;;;4994057;28;20340;-79
2020/12/25 11:13:51;;;;;;;1.63;0.90;;;0.10;99.90;;;;;;4991063;28;20258;-79
2020/12/25 11:16:30;;;;;;;0.80;0.80;;;0.10;99.90;;;;;;4986127;28;20187;-78
2020/12/25 11:18:58;;;;;;;0.80;0.80;;;0.10;99.90;;;;;;4987417;28;20199;-78
2020/12/25 11:21:31;;;;;;;3.53;0.90;;;0.10;99.90;;;;;;4990864;28;20561;-79
2020/12/25 11:23:59;;;;;;;5.57;0.90;;;0.20;99.90;;;;;;4988789;28;20732;-80
2020/12/25 11:26:29;;;;;;;1.23;1.00;;;0.10;99.90;;;;;;4987828;28;20208;-81
2020/12/25 11:28:58;;;;;;;8.88;1.20;;;0.00;99.90;;;;;;4991925;28;20207;-80
2020/12/25 11:31:25;;;;;;;1.30;0.80;;;0.00;99.90;;;;;;4988137;28;20324;-79
2020/12/25 11:33:52;;;;;;;2.35;1.00;;;0.00;99.90;;;;;;4988985;28;20662;-80
2020/12/25 11:36:19;;;;;;;0.80;0.80;;;0.00;99.90;;;;;;4988098;28;20231;-78
2020/12/25 11:38:45;;;;;;;1.48;1.13;;;0.10;99.90;;;;;;4984518;28;20215;-79
2020/12/25 11:41:12;;;;;;;1.63;1.05;;;0.10;99.90;;;;;;4996397;28;20199;-78
2020/12/25 11:43:39;;;;;;;1.35;0.90;;;0.20;99.90;;;;;;4998710;28;20677;-80
2020/12/25 11:46:06;;;;;;;2.08;1.00;;;0.20;99.90;;;;;;5001276;28;20300;-80
2020/12/25 11:48:32;;;;;;;1.30;0.98;;;0.30;99.90;;;;;;5003727;28;20603;-80
2020/12/25 11:50:58;;;;;;;4.85;0.90;;;0.30;99.90;;;;;;5001840;28;20190;-81
2020/12/25 11:53:25;;;;;;;1.30;1.00;;;0.20;99.90;;;;;;5001426;28;20713;-81
2020/12/25 11:55:51;;;;;;;1.42;0.88;;;0.20;99.90;;;;;;4996440;28;20202;-81
2020/12/25 11:58:17;;;;;;;3.10;0.95;;;0.20;99.90;;;;;;5000149;28;20202;-80
2020/12/25 12:00:43;;;;;;;1.73;0.90;;;0.20;99.90;;;;;;5000287;28;20802;-81
2020/12/25 12:03:09;;;;;;;2.05;1.00;;;0.10;99.90;;;;;;4999067;28;20229;-82
2020/12/25 12:05:35;;;;;;;1.92;1.20;;;0.20;99.90;;;;;;5005018;28;20265;-81
2020/12/25 12:08:01;;;;;;;0.88;0.88;;;0.10;99.90;;;;;;5000955;28;20210;-81
2020/12/25 12:10:27;;;;;;;1.60;0.90;;;0.00;99.90;;;;;;4997782;28;20646;-82
2020/12/25 12:12:53;;;;;;;1.40;0.93;;;0.00;99.90;;;;;;5003677;28;20616;-81
2020/12/25 12:15:18;;;;;;;2.70;0.90;;;0.00;99.90;;;;;;5003266;28;20198;-80
2020/12/25 12:17:44;;;;;;;2.30;1.00;;;0.00;99.90;;;;;;4991115;28;20200;-81
2020/12/25 12:20:10;;;;;;;0.93;0.93;;;0.00;99.90;;;;;;4997015;28;20657;-80
2020/12/25 12:22:35;;;;;;;3.05;0.90;;;0.10;99.90;;;;;;4995448;28;20207;-81
2020/12/25 12:25:05;;;;;;;3.58;1.15;;;0.10;99.90;;;;;;4996971;28;20199;-81
2020/12/25 12:27:31;;;;;;;2.25;0.90;;;0.10;99.90;;;;;;4993741;28;20286;-81
2020/12/25 12:29:57;;;;;;;1.25;0.93;;;0.10;99.90;;;;;;4997596;28;20287;-80
2020/12/25 12:32:24;;;;;;;2.03;1.00;;;0.10;99.90;;;;;;4999029;28;20680;-80
2020/12/25 12:34:51;;;;;;;1.10;1.00;;;0.00;99.90;;;;;;4996678;28;20265;-82
2020/12/25 12:37:16;;;;;;;1.15;0.90;;;-0.10;99.90;;;;;;4992103;28;20203;-80
2020/12/25 12:39:42;;;;;;;1.65;1.00;;;-0.20;99.90;;;;;;5000287;28;20315;-80
2020/12/25 12:42:08;;;;;;;2.20;1.10;;;-0.30;99.90;;;;;;5003260;28;20198;-82
2020/12/25 12:44:33;;;;;;;1.00;0.90;;;-0.30;99.90;;;;;;5003586;28;20698;-81
2020/12/25 12:46:59;;;;;;;3.70;1.20;;;-0.30;99.90;;;;;;5001439;28;20926;-81
2020/12/25 12:49:25;;;;;;;0.98;0.93;;;-0.40;99.90;;;;;;5002530;28;20253;-80
2020/12/25 12:51:50;;;;;;;0.95;0.93;;;-0.40;99.90;;;;;;5001638;28;20201;-80